createdAt,value
2023-04-07T00:02:45.165Z,11.22
2023-04-07T00:07:56.016Z,11.54
2023-04-07T00:12:59.688Z,11.63
2023-04-07T00:18:02.074Z,11.43
2023-04-07T00:23:04.214Z,11.26
2023-04-07T00:28:06.373Z,11.61
2023-04-07T00:33:09.757Z,11.56
2023-04-07T00:38:12.125Z,11.54
2023-04-07T00:43:14.376Z,11.18
2023-04-07T00:48:16.695Z,11.04
2023-04-07T00:53:20.316Z,10.89
2023-04-07T00:58:22.844Z,11.24
2023-04-07T01:03:36.190Z,10.90
2023-04-07T01:09:02.037Z,10.84
2023-04-07T01:14:06.774Z,10.92
2023-04-07T01:19:41.201Z,10.92
2023-04-07T01:25:12.395Z,10.83
2023-04-07T01:30:17.593Z,11.14
2023-04-07T01:35:20.866Z,10.92
2023-04-07T01:40:23.687Z,11.19
2023-04-07T01:45:28.312Z,11.34
2023-04-07T01:50:31.041Z,11.20
2023-04-07T01:55:35.135Z,10.37
2023-04-07T02:00:42.077Z,10.60
2023-04-07T02:05:52.666Z,10.49
2023-04-07T02:10:57.528Z,10.83
2023-04-07T02:16:03.010Z,11.07
2023-04-07T02:21:06.593Z,11.26
2023-04-07T02:26:08.804Z,11.33
2023-04-07T02:31:13.644Z,11.02
2023-04-07T02:36:16.126Z,11.18
2023-04-07T02:41:18.436Z,11.00
2023-04-07T02:46:20.717Z,10.59
2023-04-07T02:51:22.886Z,10.43
2023-04-07T02:56:25.046Z,10.14
2023-04-07T03:01:28.198Z,10.16
2023-04-07T03:06:31.733Z,10.10
2023-04-07T03:11:43.489Z,9.77
2023-04-07T03:16:45.955Z,9.29
2023-04-07T03:21:49.562Z,10.22
2023-04-07T03:26:51.731Z,10.01
2023-04-07T03:32:02.950Z,9.57
2023-04-07T03:37:05.542Z,9.79
2023-04-07T03:42:11.278Z,9.15
2023-04-07T03:47:13.767Z,9.80
2023-04-07T03:52:16.504Z,9.55
2023-04-07T03:57:22.459Z,8.94
2023-04-07T04:02:26.965Z,9.06
2023-04-07T04:07:31.420Z,9.72
2023-04-07T04:12:41.773Z,9.78
2023-04-07T04:17:46.564Z,9.16
2023-04-07T04:22:49.062Z,8.72
2023-04-07T04:27:52.484Z,9.06
2023-04-07T04:32:58.559Z,8.91
2023-04-07T04:38:10.583Z,8.68
2023-04-07T04:43:17.163Z,8.79
2023-04-07T04:48:20.196Z,9.22
2023-04-07T04:53:23.389Z,9.90
2023-04-07T04:58:31.443Z,9.26
2023-04-07T05:03:33.957Z,9.13
2023-04-07T05:08:39.498Z,9.90
2023-04-07T05:13:42.292Z,9.85
2023-04-07T05:18:44.503Z,9.60
2023-04-07T05:23:47.206Z,9.40
2023-04-07T05:28:49.739Z,8.93
2023-04-07T05:33:55.728Z,8.65
2023-04-07T05:39:01.661Z,8.92
2023-04-07T05:44:04.407Z,9.08
2023-04-07T05:49:19.657Z,9.28
2023-04-07T05:54:27.786Z,9.49
2023-04-07T05:59:30.294Z,9.60
2023-04-07T06:04:35.252Z,9.50
2023-04-07T06:09:40.026Z,9.45
2023-04-07T06:14:42.334Z,9.35
2023-04-07T06:19:44.722Z,9.46
2023-04-07T06:24:47.027Z,10.00
2023-04-07T06:29:49.361Z,9.69
2023-04-07T06:34:51.745Z,9.79
2023-04-07T06:39:54.045Z,9.83
2023-04-07T06:44:56.346Z,9.83
2023-04-07T06:49:58.640Z,9.84
2023-04-07T06:55:00.829Z,9.88
2023-04-07T07:00:03.333Z,9.98
2023-04-07T07:05:06.262Z,9.94
2023-04-07T07:10:11.144Z,10.10
2023-04-07T07:15:13.444Z,9.95
2023-04-07T07:20:15.929Z,9.98
2023-04-07T07:25:18.326Z,9.68
2023-04-07T07:30:24.992Z,10.15
2023-04-07T07:35:27.108Z,10.07
2023-04-07T07:40:29.450Z,10.29
2023-04-07T07:45:31.740Z,9.95
2023-04-07T07:50:34.036Z,9.69
2023-04-07T07:55:36.319Z,9.76
2023-04-07T08:00:38.669Z,9.66
2023-04-07T08:05:40.939Z,9.24
2023-04-07T08:10:43.356Z,9.00
2023-04-07T08:15:45.687Z,9.24
2023-04-07T08:20:48.007Z,8.82
2023-04-07T08:25:50.429Z,9.26
2023-04-07T08:30:52.738Z,9.05
2023-04-07T08:35:55.084Z,8.33
2023-04-07T08:41:14.413Z,8.23
2023-04-07T08:46:19.564Z,8.33
2023-04-07T08:51:33.302Z,8.17
2023-04-07T08:56:38.264Z,8.17
2023-04-07T09:01:42.140Z,8.11
2023-04-07T09:06:44.544Z,8.25
2023-04-07T09:11:49.512Z,8.15
2023-04-07T09:16:51.898Z,7.95
2023-04-07T09:21:54.304Z,7.73
2023-04-07T09:27:19.676Z,8.22
2023-04-07T09:32:39.005Z,8.34
2023-04-07T09:37:42.567Z,8.20
2023-04-07T09:42:48.381Z,8.18
2023-04-07T09:47:52.066Z,8.28
2023-04-07T09:52:54.466Z,7.94
2023-04-07T09:57:56.945Z,8.03
2023-04-07T10:02:59.456Z,7.67
2023-04-07T10:08:02.688Z,7.71
2023-04-07T10:13:08.776Z,8.10
2023-04-07T10:18:12.436Z,7.97
2023-04-07T10:23:24.203Z,7.50
2023-04-07T10:28:29.149Z,7.84
2023-04-07T10:33:56.434Z,8.01
2023-04-07T10:39:07.408Z,8.00
2023-04-07T10:44:39.807Z,8.00
2023-04-07T10:50:22.253Z,8.38
2023-04-07T10:55:40.418Z,8.64
2023-04-07T11:00:43.647Z,8.92
2023-04-07T11:05:46.093Z,9.08
2023-04-07T11:10:48.897Z,9.20
2023-04-07T11:15:54.788Z,9.44
2023-04-07T11:21:01.163Z,9.24
2023-04-07T11:26:04.023Z,9.62
2023-04-07T11:31:06.267Z,9.60
2023-04-07T11:36:08.531Z,9.55
2023-04-07T11:41:19.691Z,9.56
2023-04-07T11:46:22.636Z,9.75
2023-04-07T11:51:24.895Z,9.77
2023-04-07T11:56:27.987Z,9.52
2023-04-07T12:01:43.666Z,9.90
2023-04-07T12:06:48.355Z,10.08
2023-04-07T12:11:51.317Z,9.62
2023-04-07T12:16:56.535Z,9.28
2023-04-07T12:21:58.753Z,9.51
2023-04-07T12:27:00.941Z,9.27
2023-04-07T12:32:04.385Z,9.23
2023-04-07T12:37:06.519Z,9.39
2023-04-07T12:42:11.842Z,9.33
2023-04-07T12:47:14.196Z,9.03
2023-04-07T12:52:17.017Z,9.15
2023-04-07T12:57:47.661Z,9.11
2023-04-07T13:02:50.743Z,9.01
2023-04-07T13:07:53.076Z,9.12
2023-04-07T13:12:55.494Z,9.29
2023-04-07T13:17:57.724Z,9.29
2023-04-07T13:23:07.492Z,9.57
2023-04-07T13:28:11.933Z,9.71
2023-04-07T13:33:14.410Z,9.96
2023-04-07T13:38:16.673Z,9.97
2023-04-07T13:43:19.173Z,9.80
2023-04-07T13:48:21.768Z,9.85
2023-04-07T13:53:24.162Z,10.05
2023-04-07T13:58:26.327Z,9.89
2023-04-07T14:03:28.659Z,9.74
2023-04-07T14:08:30.929Z,10.11
2023-04-07T14:13:33.254Z,10.45
2023-04-07T14:18:35.595Z,10.32
2023-04-07T14:23:38.312Z,10.35
2023-04-07T14:28:40.694Z,10.62
2023-04-07T14:33:44.475Z,10.81
2023-04-07T14:38:46.535Z,10.64
2023-04-07T14:43:53.581Z,10.70
2023-04-07T14:48:58.341Z,10.90
2023-04-07T14:54:00.850Z,10.75
2023-04-07T14:59:03.325Z,10.83
2023-04-07T15:04:05.778Z,10.80
2023-04-07T15:09:08.007Z,10.73
2023-04-07T15:14:10.257Z,10.79
2023-04-07T15:19:12.356Z,10.63
2023-04-07T15:24:16.330Z,10.25
2023-04-07T15:29:18.705Z,10.43
2023-04-07T15:34:20.981Z,10.40
2023-04-07T15:39:23.096Z,11.01
2023-04-07T15:44:25.295Z,11.24
2023-04-07T15:49:27.378Z,11.02
2023-04-07T15:54:29.592Z,10.58
2023-04-07T15:59:31.899Z,10.98
2023-04-07T16:04:34.245Z,10.64
2023-04-07T16:09:36.400Z,11.24
2023-04-07T16:14:38.546Z,10.96
2023-04-07T16:19:40.671Z,10.91
2023-04-07T16:24:42.776Z,10.84
2023-04-07T16:29:44.875Z,10.43
2023-04-07T16:34:47.033Z,10.39
2023-04-07T16:39:49.391Z,10.64
2023-04-07T16:44:51.614Z,10.60
2023-04-07T16:49:54.163Z,10.39
2023-04-07T16:54:56.274Z,10.62
2023-04-07T16:59:58.770Z,10.70
2023-04-07T17:05:01.036Z,10.57
2023-04-07T17:10:03.701Z,10.45
2023-04-07T17:15:06.605Z,10.33
2023-04-07T17:20:09.571Z,10.14
2023-04-07T17:25:12.264Z,10.08
2023-04-07T17:30:14.592Z,9.83
2023-04-07T17:35:17.062Z,9.84
2023-04-07T17:40:19.521Z,10.17
2023-04-07T17:45:22.403Z,10.41
2023-04-07T17:50:24.553Z,10.51
2023-04-07T17:55:28.179Z,10.47
2023-04-07T18:00:30.645Z,10.36
2023-04-07T18:05:32.854Z,10.33
2023-04-07T18:10:34.984Z,10.36
2023-04-07T18:15:37.613Z,10.12
2023-04-07T18:20:39.923Z,9.97
2023-04-07T18:25:42.492Z,10.05
2023-04-07T18:30:44.753Z,10.02
2023-04-07T18:35:46.886Z,8.87
2023-04-07T18:40:49.202Z,8.83
2023-04-07T18:45:52.831Z,9.55
2023-04-07T18:50:56.718Z,9.82
2023-04-07T18:55:59.292Z,9.49
2023-04-07T19:01:01.444Z,9.17
2023-04-07T19:06:04.711Z,8.28
2023-04-07T19:11:07.237Z,8.04
2023-04-07T19:16:09.790Z,8.25
2023-04-07T19:21:13.525Z,8.58
2023-04-07T19:26:16.041Z,8.25
2023-04-07T19:31:18.209Z,8.47
2023-04-07T19:36:20.955Z,8.15
2023-04-07T19:41:23.195Z,8.14
2023-04-07T19:46:25.697Z,8.43
2023-04-07T19:51:28.514Z,8.68
2023-04-07T19:56:30.803Z,8.30
2023-04-07T20:01:33.165Z,8.31
2023-04-07T20:06:36.657Z,7.72
2023-04-07T20:11:38.787Z,7.30
2023-04-07T20:16:41.577Z,7.52
2023-04-07T20:21:43.913Z,7.46
2023-04-07T20:26:46.615Z,6.95
2023-04-07T20:31:48.857Z,7.54
2023-04-07T20:36:51.137Z,7.65
2023-04-07T20:41:53.322Z,7.25
2023-04-07T20:46:56.340Z,7.17
2023-04-07T20:51:59.086Z,7.56
2023-04-07T20:57:02.231Z,7.65
2023-04-07T21:02:04.577Z,7.55
2023-04-07T21:07:06.784Z,8.04
2023-04-07T21:12:10.056Z,7.78
2023-04-07T21:17:12.603Z,7.58
2023-04-07T21:22:14.728Z,7.70
2023-04-07T21:27:17.681Z,8.42
2023-04-07T21:32:20.734Z,8.25
2023-04-07T21:37:23.055Z,8.15
2023-04-07T21:42:25.169Z,7.41
2023-04-07T21:47:27.325Z,8.03
2023-04-07T21:52:29.490Z,8.43
2023-04-07T21:57:31.808Z,8.09
2023-04-07T22:02:34.314Z,8.25
2023-04-07T22:07:37.390Z,8.69
2023-04-07T22:12:39.634Z,8.35
2023-04-07T22:17:42.374Z,7.88
2023-04-07T22:22:44.664Z,8.00
2023-04-07T22:27:46.805Z,8.26
2023-04-07T22:32:48.956Z,8.86
2023-04-07T22:37:51.294Z,8.71
2023-04-07T22:42:53.517Z,7.97
2023-04-07T22:47:56.232Z,8.41
2023-04-07T22:52:58.633Z,8.44
2023-04-07T22:58:01.231Z,8.38
2023-04-07T23:03:03.836Z,8.01
2023-04-07T23:08:06.285Z,7.90
2023-04-07T23:13:08.409Z,7.97
2023-04-07T23:18:10.679Z,8.07
2023-04-07T23:23:12.866Z,7.57
2023-04-07T23:28:15.507Z,7.01
2023-04-07T23:33:18.256Z,7.85
2023-04-07T23:38:20.538Z,7.53
2023-04-07T23:43:22.625Z,7.70
2023-04-07T23:48:26.226Z,7.40
2023-04-07T23:53:28.386Z,6.44
2023-04-07T23:58:30.571Z,6.30
